createdAt,value
2022-09-11T00:02:40.484Z,17.01
2022-09-11T00:07:42.165Z,17.00
2022-09-11T00:12:44.629Z,17.20
2022-09-11T00:17:46.240Z,17.07
2022-09-11T00:22:48.689Z,17.01
2022-09-11T00:27:51.862Z,16.92
2022-09-11T00:32:53.406Z,16.97
2022-09-11T00:37:55.034Z,16.91
2022-09-11T00:42:57.539Z,16.89
2022-09-11T00:47:59.744Z,16.87
2022-09-11T00:53:03.820Z,16.84
2022-09-11T00:58:08.528Z,16.86
2022-09-11T01:03:10.657Z,16.94
2022-09-11T01:08:14.442Z,16.84
2022-09-11T01:13:27.861Z,16.86
2022-09-11T01:18:48.164Z,16.95
2022-09-11T01:24:01.072Z,17.02
2022-09-11T01:29:16.107Z,17.02
2022-09-11T01:34:36.872Z,16.98
2022-09-11T01:39:41.697Z,16.93
2022-09-11T01:44:51.044Z,16.99
2022-09-11T01:50:06.332Z,16.81
2022-09-11T01:55:15.067Z,16.84
2022-09-11T02:00:16.937Z,16.83
2022-09-11T02:05:32.408Z,16.68
2022-09-11T02:10:42.905Z,16.79
2022-09-11T02:15:51.512Z,16.62
2022-09-11T02:20:53.830Z,16.72
2022-09-11T02:25:55.424Z,16.88
2022-09-11T02:30:57.142Z,16.82
2022-09-11T02:36:29.755Z,16.85
2022-09-11T02:42:09.291Z,16.73
2022-09-11T02:47:15.958Z,16.63
2022-09-11T02:52:49.074Z,16.52
2022-09-11T02:58:10.893Z,16.37
2022-09-11T03:03:14.573Z,16.45
2022-09-11T03:08:20.345Z,16.48
2022-09-11T03:13:22.616Z,16.35
2022-09-11T03:18:24.644Z,16.64
2022-09-11T03:23:27.216Z,16.38
2022-09-11T03:28:30.966Z,16.10
2022-09-11T03:33:33.214Z,16.54
2022-09-11T03:38:35.378Z,16.49
2022-09-11T03:43:37.810Z,16.00
2022-09-11T03:48:40.805Z,16.12
2022-09-11T03:53:44.073Z,15.93
2022-09-11T03:58:46.543Z,16.00
2022-09-11T04:03:48.414Z,15.85
2022-09-11T04:08:57.629Z,16.01
2022-09-11T04:14:03.360Z,15.92
2022-09-11T04:19:05.227Z,15.88
2022-09-11T04:24:07.996Z,15.97
2022-09-11T04:29:10.550Z,15.74
2022-09-11T04:34:12.125Z,15.83
2022-09-11T04:39:13.992Z,15.85
2022-09-11T04:44:16.287Z,15.80
2022-09-11T04:49:18.964Z,15.76
2022-09-11T04:54:21.749Z,15.85
2022-09-11T04:59:23.865Z,15.73
2022-09-11T05:04:31.424Z,15.84
2022-09-11T05:09:35.587Z,15.99
2022-09-11T05:14:37.933Z,16.17
2022-09-11T05:19:40.541Z,16.28
2022-09-11T05:24:42.848Z,16.37
2022-09-11T05:29:44.478Z,16.46
2022-09-11T05:34:48.958Z,16.50
2022-09-11T05:39:52.866Z,16.53
2022-09-11T05:44:54.910Z,16.58
2022-09-11T05:49:58.251Z,16.52
2022-09-11T05:55:01.677Z,16.59
2022-09-11T06:00:06.913Z,16.57
2022-09-11T06:05:11.688Z,16.61
2022-09-11T06:10:13.855Z,16.67
2022-09-11T06:15:36.390Z,16.89
2022-09-11T06:20:38.393Z,16.94
2022-09-11T06:25:44.948Z,17.01
2022-09-11T06:30:49.541Z,17.09
2022-09-11T06:35:58.792Z,17.10
2022-09-11T06:41:05.197Z,17.17
2022-09-11T06:46:15.280Z,17.22
2022-09-11T06:51:18.836Z,17.25
2022-09-11T06:56:22.299Z,17.34
2022-09-11T07:01:25.872Z,17.21
2022-09-11T07:06:39.679Z,17.34
2022-09-11T07:12:00.340Z,17.25
2022-09-11T07:17:03.503Z,17.39
2022-09-11T07:22:05.329Z,17.50
2022-09-11T07:27:13.932Z,17.37
2022-09-11T07:32:19.080Z,17.46
2022-09-11T07:37:23.594Z,17.60
2022-09-11T07:42:28.892Z,17.70
2022-09-11T07:47:33.839Z,17.78
2022-09-11T07:52:37.164Z,17.86
2022-09-11T07:57:40.211Z,17.91
2022-09-11T08:02:44.203Z,17.87
2022-09-11T08:07:46.000Z,17.98
2022-09-11T08:12:49.192Z,18.03
2022-09-11T08:17:52.000Z,18.00
2022-09-11T08:22:54.573Z,18.07
2022-09-11T08:27:56.290Z,18.03
2022-09-11T08:32:59.540Z,18.03
2022-09-11T08:38:03.265Z,18.00
2022-09-11T08:43:05.187Z,18.01
2022-09-11T08:48:09.265Z,18.00
2022-09-11T08:53:15.428Z,17.92
2022-09-11T08:58:26.987Z,17.94
2022-09-11T09:03:31.345Z,17.83
2022-09-11T09:08:45.547Z,17.97
2022-09-11T09:14:05.284Z,18.01
2022-09-11T09:19:15.854Z,17.98
2022-09-11T09:24:19.611Z,17.91
2022-09-11T09:29:30.511Z,17.74
2022-09-11T09:34:35.172Z,17.62
2022-09-11T09:39:37.279Z,18.00
2022-09-11T09:45:07.298Z,17.79
2022-09-11T09:50:18.078Z,17.70
2022-09-11T09:55:21.100Z,17.57
2022-09-11T10:00:22.727Z,17.56
2022-09-11T10:05:32.181Z,17.82
2022-09-11T10:10:38.677Z,17.87
2022-09-11T10:15:40.662Z,17.81
2022-09-11T10:20:42.324Z,17.68
2022-09-11T10:25:49.930Z,17.72
2022-09-11T10:31:00.577Z,17.73
2022-09-11T10:36:04.546Z,17.50
2022-09-11T10:41:15.982Z,17.46
2022-09-11T10:46:41.126Z,17.35
2022-09-11T10:51:58.572Z,17.42
2022-09-11T10:57:05.397Z,17.44
2022-09-11T11:02:19.595Z,17.44
2022-09-11T11:07:34.414Z,17.48
2022-09-11T11:12:47.241Z,17.56
2022-09-11T11:18:31.442Z,17.61
2022-09-11T11:23:45.123Z,17.63
2022-09-11T11:29:04.570Z,17.57
2022-09-11T11:34:31.793Z,17.51
2022-09-11T11:39:48.574Z,17.56
2022-09-11T11:45:03.813Z,17.49
2022-09-11T11:50:08.650Z,17.35
2022-09-11T11:55:18.121Z,17.34
2022-09-11T12:00:19.865Z,17.39
2022-09-11T12:05:24.703Z,17.31
2022-09-11T12:10:37.922Z,17.25
2022-09-11T12:15:39.512Z,17.39
2022-09-11T12:20:45.263Z,17.45
2022-09-11T12:25:50.177Z,17.54
2022-09-11T12:31:06.335Z,17.57
2022-09-11T12:36:10.557Z,17.58
2022-09-11T12:41:15.104Z,17.62
2022-09-11T12:46:23.273Z,17.61
2022-09-11T12:51:33.299Z,17.61
2022-09-11T12:56:34.879Z,17.66
2022-09-11T13:01:44.172Z,17.74
2022-09-11T13:07:04.851Z,17.78
2022-09-11T13:12:18.846Z,17.82
2022-09-11T13:17:32.444Z,17.79
2022-09-11T13:22:35.224Z,17.81
2022-09-11T13:27:43.463Z,17.90
2022-09-11T13:32:48.576Z,17.92
2022-09-11T13:37:57.483Z,17.92
2022-09-11T13:43:00.363Z,17.94
2022-09-11T13:48:02.302Z,17.98
2022-09-11T13:53:03.892Z,17.91
2022-09-11T13:58:24.603Z,17.99
2022-09-11T14:03:28.520Z,18.05
2022-09-11T14:08:32.838Z,18.14
2022-09-11T14:13:41.608Z,18.26
2022-09-11T14:18:48.658Z,18.32
2022-09-11T14:23:52.830Z,18.35
2022-09-11T14:28:59.736Z,18.38
2022-09-11T14:34:18.953Z,18.43
2022-09-11T14:39:34.352Z,18.47
2022-09-11T14:44:37.770Z,18.43
2022-09-11T14:49:39.466Z,18.48
2022-09-11T14:54:41.285Z,18.52
2022-09-11T14:59:42.860Z,18.60
2022-09-11T15:04:46.236Z,18.63
2022-09-11T15:09:48.134Z,18.71
2022-09-11T15:14:57.239Z,18.78
2022-09-11T15:20:00.701Z,18.84
2022-09-11T15:25:03.590Z,18.79
2022-09-11T15:30:05.929Z,18.83
2022-09-11T15:35:07.991Z,18.81
2022-09-11T15:40:10.358Z,18.80
2022-09-11T15:45:13.025Z,18.74
2022-09-11T15:50:18.191Z,18.78
2022-09-11T15:55:19.810Z,18.78
2022-09-11T16:00:21.519Z,18.82
2022-09-11T16:05:23.122Z,18.73
2022-09-11T16:10:24.726Z,18.77
2022-09-11T16:15:26.367Z,18.74
2022-09-11T16:20:28.050Z,18.74
2022-09-11T16:25:30.184Z,18.76
2022-09-11T16:30:43.576Z,18.76
2022-09-11T16:36:00.168Z,18.73
2022-09-11T16:41:09.219Z,18.72
2022-09-11T16:46:17.180Z,18.76
2022-09-11T16:51:20.148Z,18.75
2022-09-11T16:56:23.369Z,18.73
2022-09-11T17:01:26.918Z,18.70
2022-09-11T17:06:30.323Z,18.66
2022-09-11T17:11:32.979Z,18.63
2022-09-11T17:16:35.711Z,18.63
2022-09-11T17:21:37.943Z,18.53
2022-09-11T17:26:39.443Z,18.53
2022-09-11T17:31:41.002Z,18.52
2022-09-11T17:36:43.228Z,18.46
2022-09-11T17:41:44.739Z,18.42
2022-09-11T17:46:46.399Z,18.35
2022-09-11T17:51:49.015Z,18.39
2022-09-11T17:56:51.283Z,18.35
2022-09-11T18:01:53.303Z,18.28
2022-09-11T18:06:55.107Z,18.35
2022-09-11T18:11:56.713Z,18.29
2022-09-11T18:16:58.365Z,18.11
2022-09-11T18:21:59.955Z,18.23
2022-09-11T18:27:01.648Z,18.17
2022-09-11T18:32:03.456Z,18.20
2022-09-11T18:37:05.231Z,18.15
2022-09-11T18:42:07.425Z,17.93
2022-09-11T18:47:09.510Z,17.77
2022-09-11T18:52:12.561Z,17.81
2022-09-11T18:57:14.228Z,17.79
2022-09-11T19:02:16.272Z,17.68
2022-09-11T19:07:17.939Z,17.74
2022-09-11T19:12:20.967Z,17.74
2022-09-11T19:17:23.246Z,17.69
2022-09-11T19:22:24.927Z,17.71
2022-09-11T19:27:26.463Z,17.67
2022-09-11T19:32:28.094Z,17.65
2022-09-11T19:37:29.938Z,17.74
2022-09-11T19:42:32.438Z,17.56
2022-09-11T19:47:33.946Z,17.58
2022-09-11T19:52:35.474Z,17.49
2022-09-11T19:57:37.036Z,17.45
2022-09-11T20:02:38.818Z,17.47
2022-09-11T20:07:40.404Z,17.42
2022-09-11T20:12:41.952Z,17.35
2022-09-11T20:17:44.771Z,17.34
2022-09-11T20:22:46.475Z,17.39
2022-09-11T20:27:48.158Z,17.25
2022-09-11T20:32:49.715Z,17.21
2022-09-11T20:37:52.428Z,17.19
2022-09-11T20:42:53.991Z,17.16
2022-09-11T20:47:55.548Z,17.22
2022-09-11T20:52:57.110Z,17.37
2022-09-11T20:58:00.558Z,17.36
2022-09-11T21:03:02.307Z,17.30
2022-09-11T21:08:03.879Z,17.31
2022-09-11T21:13:05.442Z,17.20
2022-09-11T21:18:07.008Z,17.26
2022-09-11T21:23:08.569Z,17.28
2022-09-11T21:28:10.376Z,17.36
2022-09-11T21:33:12.002Z,17.10
2022-09-11T21:38:13.574Z,17.07
2022-09-11T21:43:15.312Z,17.00
2022-09-11T21:48:17.053Z,17.08
2022-09-11T21:53:18.939Z,16.93
2022-09-11T21:58:21.409Z,16.93
2022-09-11T22:03:23.074Z,16.91
2022-09-11T22:08:24.728Z,16.87
2022-09-11T22:13:26.313Z,16.85
2022-09-11T22:18:27.829Z,16.99
2022-09-11T22:23:30.371Z,17.03
2022-09-11T22:28:31.989Z,17.04
2022-09-11T22:33:33.569Z,16.97
2022-09-11T22:38:35.244Z,17.08
2022-09-11T22:43:37.353Z,16.99
2022-09-11T22:48:39.170Z,16.87
2022-09-11T22:53:41.312Z,16.96
2022-09-11T22:58:42.986Z,17.08
2022-09-11T23:03:44.867Z,17.05
2022-09-11T23:08:47.306Z,17.06
2022-09-11T23:13:50.339Z,16.96
2022-09-11T23:18:59.513Z,16.97
2022-09-11T23:24:01.853Z,17.12
2022-09-11T23:29:03.445Z,17.11
2022-09-11T23:34:06.913Z,17.01
2022-09-11T23:39:08.450Z,17.07
2022-09-11T23:44:10.256Z,16.91
2022-09-11T23:49:12.216Z,17.06
2022-09-11T23:54:13.757Z,17.05
2022-09-11T23:59:15.386Z,17.08
